Time;durP1;ratioP1;P1;durP2;ratioP2;P2;SDS_P1;SDS_P2;PMS_P1;PMS_P2;Temp;Humidity;BMP_temperature;BMP_pressure;BME280_temperature;BME280_humidity;BME280_pressure;Samples;Min_cycle;Max_cycle;Signal;HPM_P1;HPM_P2
2024/01/26 00:02:15;;;;;;;5.97;2.60;;;;;;;-141.97;56.94;46077.84;5032334;28;20162;-85
2024/01/26 00:04:40;;;;;;;5.77;2.90;;;;;;;-141.97;56.23;46058.63;4998575;28;20637;-86
2024/01/26 00:07:06;;;;;;;6.37;2.70;;;;;;;-141.97;56.41;45951.06;4998136;28;20472;-86
2024/01/26 00:09:31;;;;;;;6.70;3.47;;;;;;;-141.97;56.56;46033.66;4998133;28;20277;-86
2024/01/26 00:11:57;;;;;;;6.90;2.30;;;;;;;-141.97;56.71;46110.50;4998177;28;20166;-85
2024/01/26 00:14:22;;;;;;;5.83;2.60;;;;;;;-141.97;56.13;46175.84;5014137;28;20166;-85
2024/01/26 00:16:48;;;;;;;12.20;3.47;;;;;;;-141.97;56.02;45989.47;4981694;28;20162;-86
2024/01/26 00:19:13;;;;;;;5.87;2.77;;;;;;;-141.97;55.57;46496.72;5014940;28;20174;-85
2024/01/26 00:21:38;;;;;;;7.80;2.97;;;;;;;-141.97;55.57;46025.97;4997731;28;20307;-84
2024/01/26 00:24:04;;;;;;;7.87;2.90;;;;;;;-141.97;55.03;45995.25;4998485;28;20162;-85
2024/01/26 00:26:30;;;;;;;9.03;3.07;;;;;;;-141.97;55.09;46112.44;5000056;28;20231;-85
2024/01/26 00:28:55;;;;;;;5.50;2.30;;;;;;;-141.97;54.75;46066.31;5047563;28;20197;-86
2024/01/26 00:31:21;;;;;;;3.67;2.17;;;;;;;-141.97;54.08;46112.44;5037136;28;20303;-87
2024/01/26 00:33:47;;;;;;;5.70;2.83;;;;;;;-141.97;54.27;46104.75;5039463;28;20166;-85
2024/01/26 00:36:13;;;;;;;5.73;2.80;;;;;;;-141.97;54.23;46039.44;4998419;28;20189;-85
2024/01/26 00:38:39;;;;;;;5.27;2.63;;;;;;;-141.97;53.62;46108.59;4997979;28;20261;-84
2024/01/26 00:41:04;;;;;;;6.50;2.73;;;;;;;-141.97;53.91;45847.31;4998692;28;20181;-85
2024/01/26 00:43:30;;;;;;;6.23;2.67;;;;;;;-141.97;53.64;46100.91;5032223;28;20166;-84
2024/01/26 00:45:55;;;;;;;6.23;2.33;;;;;;;-141.97;53.59;46118.19;5013675;28;20192;-84
2024/01/26 00:48:21;;;;;;;6.47;3.00;;;;;;;-141.97;53.58;46070.16;5015511;28;20741;-85
2024/01/26 00:50:49;;;;;;;7.03;2.57;;;;;;;-141.97;53.55;45835.78;4998644;28;20292;-85
2024/01/26 00:53:15;;;;;;;5.03;2.43;;;;;;;-141.97;53.56;46085.53;4998508;28;20184;-85
2024/01/26 00:55:41;;;;;;;8.10;3.10;;;;;;;-141.97;53.54;46120.13;4997255;28;20166;-86
2024/01/26 00:58:06;;;;;;;8.10;2.90;;;;;;;-141.97;53.40;46108.59;5014025;28;20307;-85
2024/01/26 01:00:31;;;;;;;6.17;2.60;;;;;;;-141.97;53.61;46519.75;5032318;28;20196;-85
2024/01/26 01:02:57;;;;;;;5.00;2.30;;;;;;;-141.97;53.71;46127.81;5017983;28;20224;-85
2024/01/26 01:05:24;;;;;;;9.67;2.77;;;;;;;-141.97;53.62;46122.03;5051910;28;20162;-85
2024/01/26 01:07:50;;;;;;;7.07;2.67;;;;;;;-141.97;53.48;46264.22;5044890;28;20295;-85
2024/01/26 01:10:15;;;;;;;5.43;3.03;;;;;;;-141.97;53.68;46022.13;5009425;28;20258;-84
2024/01/26 01:12:41;;;;;;;5.87;3.23;;;;;;;-141.97;53.71;46108.59;5005039;28;20184;-85
2024/01/26 01:15:11;;;;;;;9.00;3.47;;;;;;;-141.97;53.85;45947.22;5002788;28;20308;-85
2024/01/26 01:17:43;;;;;;;8.70;2.83;;;;;;;-141.97;53.94;45976.03;4982472;28;20177;-84
2024/01/26 01:20:10;;;;;;;5.63;2.60;;;;;;;-141.97;54.15;46431.38;4998154;28;20189;-85
2024/01/26 01:22:38;;;;;;;5.80;2.97;;;;;;;-141.97;54.26;46310.31;5013860;28;20162;-84
2024/01/26 01:25:04;;;;;;;9.70;3.20;;;;;;;-141.97;54.59;46010.63;4982399;28;20202;-84
2024/01/26 01:27:31;;;;;;;6.23;3.10;;;;;;;-141.97;54.15;46558.19;5013989;28;20231;-84
2024/01/26 01:29:57;;;;;;;6.00;3.10;;;;;;;-141.97;54.63;46035.59;4998175;28;20193;-84
2024/01/26 01:32:22;;;;;;;5.73;3.00;;;;;;;-141.97;54.71;46220.03;5013965;28;20173;-84
2024/01/26 01:34:48;;;;;;;4.13;2.60;;;;;;;-141.97;55.29;46145.09;5015423;28;20181;-84
2024/01/26 01:37:13;;;;;;;6.83;2.80;;;;;;;-141.97;54.71;46398.72;5014781;28;20170;-84
2024/01/26 01:39:39;;;;;;;4.73;2.27;;;;;;;-141.97;55.40;45883.81;5013790;28;20190;-86
2024/01/26 01:42:04;;;;;;;6.13;2.70;;;;;;;-141.97;55.27;46538.97;4981099;28;20170;-85
2024/01/26 01:44:30;;;;;;;7.67;3.00;;;;;;;-141.97;55.21;46173.91;4997057;28;20583;-84
2024/01/26 01:46:56;;;;;;;6.73;3.30;;;;;;;-141.97;55.18;46091.31;4999114;28;20158;-85
2024/01/26 01:49:22;;;;;;;6.73;3.27;;;;;;;-141.97;55.19;46540.91;4996361;28;20202;-85
2024/01/26 01:51:48;;;;;;;10.47;3.40;;;;;;;-141.97;55.44;46427.53;4996410;28;20217;-84
2024/01/26 01:54:13;;;;;;;5.90;3.10;;;;;;;-141.97;55.39;46099.00;4996104;28;20952;-84
2024/01/26 01:56:39;;;;;;;4.63;2.03;;;;;;;-141.97;55.34;45935.69;4996575;28;20724;-84
2024/01/26 01:59:05;;;;;;;4.97;2.60;;;;;;;-141.97;55.15;46319.94;4996657;28;20626;-84
2024/01/26 02:01:31;;;;;;;9.83;3.23;;;;;;;-141.97;55.12;46004.84;4996674;28;20154;-84
2024/01/26 02:04:00;;;;;;;6.47;3.00;;;;;;;-141.97;54.91;45904.94;4996221;28;20432;-84
2024/01/26 02:06:26;;;;;;;8.37;2.53;;;;;;;-141.97;54.86;46056.72;4996785;28;20232;-84
2024/01/26 02:08:52;;;;;;;5.90;2.77;;;;;;;-141.97;54.37;45874.22;4996229;28;20166;-84
2024/01/26 02:11:17;;;;;;;6.07;2.67;;;;;;;-141.97;54.87;46097.06;5012527;28;20200;-84
2024/01/26 02:13:43;;;;;;;7.87;3.37;;;;;;;-141.97;54.63;46072.09;4979929;28;20413;-84
2024/01/26 02:16:08;;;;;;;9.50;3.60;;;;;;;-141.97;54.71;46079.78;4996505;28;20571;-84
2024/01/26 02:18:34;;;;;;;9.40;3.70;;;;;;;-141.97;54.64;46108.59;4999740;28;20162;-85
2024/01/26 02:20:59;;;;;;;8.27;2.97;;;;;;;-141.97;55.02;45847.31;5030776;28;20154;-86
2024/01/26 02:23:25;;;;;;;7.57;3.40;;;;;;;-141.97;55.10;45995.25;5018886;28;20162;-84
2024/01/26 02:25:50;;;;;;;5.07;2.93;;;;;;;-141.97;55.06;46085.53;4996338;28;20162;-84
2024/01/26 02:28:16;;;;;;;11.43;3.50;;;;;;;-141.97;55.03;45899.19;4996215;28;20558;-84
2024/01/26 02:30:41;;;;;;;7.07;2.97;;;;;;;-141.97;54.89;46097.06;4995631;28;20189;-85
2024/01/26 02:33:06;;;;;;;6.00;3.13;;;;;;;-141.97;54.82;46325.69;4996281;28;20169;-84
2024/01/26 02:35:32;;;;;;;8.87;3.70;;;;;;;-141.97;54.91;46006.78;5029608;28;20177;-84
2024/01/26 02:37:57;;;;;;;8.07;3.70;;;;;;;-141.97;54.66;46189.28;4996645;28;20175;-84
2024/01/26 02:40:23;;;;;;;7.63;3.77;;;;;;;-141.97;55.06;46400.63;5013402;28;20150;-83
2024/01/26 02:42:48;;;;;;;8.30;3.60;;;;;;;-141.97;55.25;46114.34;4995870;28;20221;-84
2024/01/26 02:45:14;;;;;;;6.40;3.17;;;;;;;-141.97;55.99;46052.88;4996345;28;20173;-85
2024/01/26 02:47:39;;;;;;;7.63;3.00;;;;;;;-141.97;56.60;46500.56;4996566;28;20169;-84
2024/01/26 02:50:05;;;;;;;7.80;3.33;;;;;;;-141.97;56.28;45868.44;4996202;28;20531;-85
2024/01/26 02:52:31;;;;;;;9.07;3.77;;;;;;;-141.97;56.15;46110.50;4995687;28;20170;-84
2024/01/26 02:54:57;;;;;;;6.10;3.13;;;;;;;-141.97;55.96;46075.94;4996058;28;20428;-84
2024/01/26 02:57:23;;;;;;;10.90;5.00;;;;;;;-141.97;55.58;46045.19;5011985;28;20557;-84
2024/01/26 02:59:48;;;;;;;9.57;4.10;;;;;;;-141.97;55.58;46131.66;4996043;28;20170;-85
2024/01/26 03:02:14;;;;;;;10.70;3.57;;;;;;;-141.97;55.40;46079.78;5012339;28;20642;-85
2024/01/26 03:04:39;;;;;;;9.10;3.30;;;;;;;-141.97;55.34;46112.44;5012409;28;20170;-85
2024/01/26 03:07:05;;;;;;;8.20;4.00;;;;;;;-141.97;55.21;46481.34;4979767;28;20236;-84
2024/01/26 03:09:30;;;;;;;8.10;3.80;;;;;;;-141.97;55.49;46116.28;4979456;28;20186;-84
2024/01/26 03:11:56;;;;;;;8.30;4.17;;;;;;;-141.97;56.41;45943.38;5012171;28;20159;-83
2024/01/26 03:14:21;;;;;;;6.77;3.50;;;;;;;-141.97;56.79;45966.44;5012197;28;20626;-83
2024/01/26 03:16:47;;;;;;;10.77;3.70;;;;;;;-141.97;57.02;46091.31;5012325;28;20158;-84
2024/01/26 03:19:12;;;;;;;8.00;3.37;;;;;;;-141.97;55.90;46170.06;4979391;28;20170;-85
2024/01/26 03:21:44;;;;;;;6.40;3.57;;;;;;;-141.97;55.55;46337.22;4995740;28;20166;-84
2024/01/26 03:24:10;;;;;;;12.30;4.63;;;;;;;-141.97;55.00;46039.44;4995814;28;20609;-84
2024/01/26 03:26:35;;;;;;;7.23;3.67;;;;;;;-141.97;54.79;46356.44;5012267;28;20170;-85
2024/01/26 03:29:01;;;;;;;6.23;3.57;;;;;;;-141.97;55.06;46058.63;4997376;28;20623;-84
2024/01/26 03:31:27;;;;;;;5.97;2.87;;;;;;;-141.97;55.40;46321.84;5015656;28;20199;-85
2024/01/26 03:33:52;;;;;;;7.10;3.50;;;;;;;-141.97;55.67;45901.09;4999331;28;20269;-85
2024/01/26 03:36:17;;;;;;;10.23;4.13;;;;;;;-141.97;55.78;46079.78;5002085;28;20155;-86
2024/01/26 03:38:43;;;;;;;9.87;3.40;;;;;;;-141.97;55.57;46129.72;4984727;28;20181;-84
2024/01/26 03:41:09;;;;;;;9.10;3.60;;;;;;;-141.97;55.48;46519.75;5032824;28;20177;-84
2024/01/26 03:43:35;;;;;;;8.93;2.87;;;;;;;-141.97;55.12;46454.44;5032758;28;20537;-85
2024/01/26 03:46:02;;;;;;;6.50;3.00;;;;;;;-141.97;55.35;46396.78;4998965;28;20206;-86
2024/01/26 03:48:28;;;;;;;9.03;3.40;;;;;;;-141.97;55.15;46100.91;5000404;28;20169;-84
2024/01/26 03:50:53;;;;;;;9.90;3.60;;;;;;;-141.97;55.22;46371.81;4998901;28;20232;-84
2024/01/26 03:53:18;;;;;;;6.67;2.90;;;;;;;-141.97;55.55;46012.53;5033038;28;20163;-84
2024/01/26 03:55:44;;;;;;;4.97;2.77;;;;;;;-141.97;55.40;46408.31;5015496;28;20158;-85
2024/01/26 03:58:09;;;;;;;9.93;3.17;;;;;;;-141.97;55.91;46116.28;4998252;28;20166;-85
2024/01/26 04:00:35;;;;;;;6.80;3.27;;;;;;;-141.97;55.52;46114.34;5014985;28;20590;-85
2024/01/26 04:03:01;;;;;;;12.37;3.50;;;;;;;-141.97;55.75;46083.63;5014774;28;20165;-85
2024/01/26 04:05:26;;;;;;;8.80;4.07;;;;;;;-141.97;55.48;46515.91;5015419;28;20170;-84
2024/01/26 04:07:52;;;;;;;8.53;4.20;;;;;;;-141.97;55.47;46385.25;4997947;28;20230;-84
2024/01/26 04:10:17;;;;;;;8.27;4.30;;;;;;;-141.97;55.58;46258.44;5032524;28;20220;-85
2024/01/26 04:12:42;;;;;;;9.67;3.47;;;;;;;-141.97;55.01;45947.22;4998606;28;20552;-84
2024/01/26 04:15:08;;;;;;;7.93;4.20;;;;;;;-141.97;55.07;45881.91;5014580;28;20177;-86
2024/01/26 04:17:33;;;;;;;20.83;8.67;;;;;;;-141.97;54.83;46189.28;4998616;28;20633;-86
2024/01/26 04:19:59;;;;;;;9.40;3.30;;;;;;;-141.97;54.67;46129.72;5032532;28;20189;-86
2024/01/26 04:22:24;;;;;;;9.03;3.40;;;;;;;-141.97;54.71;46035.59;5014091;28;20640;-85
2024/01/26 04:24:50;;;;;;;8.73;2.90;;;;;;;-141.97;54.68;46070.16;4998587;28;20174;-85
2024/01/26 04:27:15;;;;;;;5.80;2.53;;;;;;;-141.97;54.45;45974.09;4998104;28;20169;-86
2024/01/26 04:29:41;;;;;;;6.50;2.37;;;;;;;-141.97;54.65;46085.53;5014497;28;20190;-86
2024/01/26 04:32:06;;;;;;;7.07;3.37;;;;;;;-141.97;54.32;46492.88;4998547;28;20197;-86
2024/01/26 04:34:31;;;;;;;6.40;2.97;;;;;;;-141.97;54.41;46446.75;4998869;28;20614;-87
2024/01/26 04:36:57;;;;;;;7.23;3.57;;;;;;;-141.97;54.05;46006.78;4982377;28;20174;-86
2024/01/26 04:39:22;;;;;;;13.23;3.90;;;;;;;-141.97;53.71;45985.63;5014399;28;20486;-85
2024/01/26 04:41:48;;;;;;;7.53;2.97;;;;;;;-141.97;53.70;45922.25;4997595;28;20614;-85
2024/01/26 04:44:13;;;;;;;6.20;3.40;;;;;;;-141.97;53.28;46008.69;4997892;28;20559;-84
2024/01/26 04:46:39;;;;;;;19.30;5.67;;;;;;;-141.97;53.28;46400.63;5013944;28;20161;-85
2024/01/26 04:49:05;;;;;;;29.20;14.20;;;;;;;-141.97;53.44;46435.22;4998310;28;20162;-85
2024/01/26 04:51:30;;;;;;;20.47;8.87;;;;;;;-141.97;53.04;46033.66;5014064;28;20162;-85
2024/01/26 04:53:56;;;;;;;8.40;3.27;;;;;;;-141.97;52.86;46108.59;5014334;28;20166;-85
2024/01/26 04:56:21;;;;;;;10.73;4.30;;;;;;;-141.97;52.73;45904.94;5014009;28;20166;-86
2024/01/26 04:58:47;;;;;;;7.03;3.27;;;;;;;-141.97;52.23;46089.38;5031448;28;20163;-85
2024/01/26 05:01:12;;;;;;;21.60;8.03;;;;;;;-141.97;52.02;45866.53;4997186;28;20173;-85
2024/01/26 05:03:38;;;;;;;16.57;4.03;;;;;;;-141.97;52.37;46356.44;4998087;28;20170;-85
2024/01/26 05:06:04;;;;;;;9.73;3.33;;;;;;;-141.97;52.11;46089.38;4997415;28;20661;-87
2024/01/26 05:08:29;;;;;;;8.50;3.20;;;;;;;-141.97;52.78;46485.19;5029988;28;20225;-87
2024/01/26 05:10:55;;;;;;;7.83;3.07;;;;;;;-141.97;52.76;46304.56;5013980;28;20206;-86
2024/01/26 05:13:20;;;;;;;6.13;3.10;;;;;;;-141.97;52.95;46385.25;4981089;28;20327;-85
2024/01/26 05:15:45;;;;;;;8.07;3.30;;;;;;;-141.97;52.45;46335.31;4998938;28;20181;-87
2024/01/26 05:18:11;;;;;;;11.40;5.60;;;;;;;-141.97;52.80;46131.66;4997244;28;20185;-86
2024/01/26 05:20:36;;;;;;;7.57;3.37;;;;;;;-141.97;52.53;45897.25;4997079;28;20159;-85
2024/01/26 05:23:02;;;;;;;10.37;4.17;;;;;;;-141.97;52.92;45895.34;4997059;28;20261;-86
2024/01/26 05:25:27;;;;;;;5.20;3.07;;;;;;;-141.97;53.37;46427.53;4981134;28;20158;-85
2024/01/26 05:27:53;;;;;;;9.70;2.90;;;;;;;-141.97;53.72;46387.19;4997330;28;20174;-86
2024/01/26 05:30:18;;;;;;;10.07;3.43;;;;;;;-141.97;53.75;45974.09;4993678;28;20196;-87
2024/01/26 05:32:43;;;;;;;8.63;3.73;;;;;;;-141.97;53.76;46135.50;5020690;28;20370;-86
2024/01/26 05:35:09;;;;;;;6.83;3.50;;;;;;;-141.97;53.79;46120.13;5039038;28;20192;-86
2024/01/26 05:37:35;;;;;;;5.87;3.07;;;;;;;-141.97;52.92;45872.28;5032967;28;20186;-86
2024/01/26 05:40:05;;;;;;;7.20;3.20;;;;;;;-141.97;53.36;46475.56;4980122;28;20251;-86
2024/01/26 05:42:30;;;;;;;5.77;2.97;;;;;;;-141.97;53.34;46404.47;5013175;28;20235;-85
2024/01/26 05:44:55;;;;;;;5.90;3.17;;;;;;;-141.97;53.69;46147.03;5014725;28;20417;-85
2024/01/26 05:47:21;;;;;;;7.53;3.60;;;;;;;-141.97;54.10;46150.84;5036788;28;20158;-86
2024/01/26 05:49:46;;;;;;;7.07;3.13;;;;;;;-141.97;53.52;46400.63;5055185;28;20189;-86
2024/01/26 05:52:12;;;;;;;9.43;4.13;;;;;;;-141.97;53.86;46097.06;5015632;28;20164;-85
2024/01/26 05:54:37;;;;;;;9.53;3.60;;;;;;;-141.97;54.07;46123.97;5047378;28;20167;-84
2024/01/26 05:57:03;;;;;;;5.93;2.83;;;;;;;-141.97;53.90;46108.59;5027360;28;20180;-84
2024/01/26 05:59:28;;;;;;;6.83;2.67;;;;;;;-141.97;53.62;45997.16;5023632;28;20166;-84
2024/01/26 06:01:54;;;;;;;8.77;3.73;;;;;;;-141.97;54.19;46289.19;5018385;28;20176;-83
2024/01/26 06:04:19;;;;;;;5.57;2.77;;;;;;;-141.97;54.31;46089.38;5012839;28;20166;-85
2024/01/26 06:06:44;;;;;;;6.80;3.23;;;;;;;-141.97;53.86;46081.69;4996498;28;20221;-84
2024/01/26 06:09:10;;;;;;;7.93;3.67;;;;;;;-141.97;53.76;46106.66;4995780;28;20174;-84
2024/01/26 06:11:35;;;;;;;8.07;3.47;;;;;;;-141.97;53.82;46045.19;5029452;28;20173;-83
2024/01/26 06:14:01;;;;;;;10.77;4.93;;;;;;;-141.97;53.79;46473.66;5012673;28;20162;-84
2024/01/26 06:16:26;;;;;;;12.77;6.10;;;;;;;-141.97;53.82;45993.31;4995813;28;20168;-87
2024/01/26 06:18:52;;;;;;;8.93;4.40;;;;;;;-141.97;53.58;46064.41;4997190;28;20174;-86
2024/01/26 06:21:17;;;;;;;13.83;5.70;;;;;;;-141.97;53.88;46538.97;5012194;28;20161;-86
2024/01/26 06:23:43;;;;;;;9.20;4.70;;;;;;;-141.97;53.72;46573.56;4995684;28;20170;-86
2024/01/26 06:26:08;;;;;;;9.47;5.47;;;;;;;-141.97;53.54;46335.31;4979900;28;20534;-86
2024/01/26 06:28:34;;;;;;;12.47;5.60;;;;;;;-141.97;53.54;46310.31;4979616;28;20197;-85
2024/01/26 06:30:59;;;;;;;9.67;4.83;;;;;;;-141.97;53.25;46487.09;4980851;28;20198;-86
2024/01/26 06:33:25;;;;;;;10.03;4.10;;;;;;;-141.97;52.66;46033.66;4981653;28;20170;-86
2024/01/26 06:35:50;;;;;;;11.77;5.10;;;;;;;-141.97;52.09;45855.00;5013759;28;20166;-86
2024/01/26 06:38:15;;;;;;;15.23;6.13;;;;;;;-141.97;52.27;45935.69;4996213;28;20635;-86
2024/01/26 06:40:41;;;;;;;10.73;5.20;;;;;;;-141.97;52.17;46341.06;4980494;28;20308;-86
2024/01/26 06:43:08;;;;;;;12.23;4.73;;;;;;;-141.97;51.88;45974.09;4989930;28;20208;-86
2024/01/26 06:45:34;;;;;;;17.07;6.27;;;;;;;-141.97;51.76;46085.53;4987886;28;20174;-86
2024/01/26 06:48:00;;;;;;;14.17;5.87;;;;;;;-141.97;51.59;45985.63;4998524;28;20629;-85
2024/01/26 06:50:25;;;;;;;6.77;3.60;;;;;;;-141.97;51.59;46120.13;4997637;28;20587;-87
2024/01/26 06:52:51;;;;;;;6.57;3.53;;;;;;;-141.97;51.47;46099.00;4997781;28;20173;-87
2024/01/26 06:55:16;;;;;;;9.37;4.80;;;;;;;-141.97;51.16;46066.31;5015628;28;20174;-86
2024/01/26 06:57:42;;;;;;;5.63;2.93;;;;;;;-141.97;51.19;45981.78;4995952;28;20172;-86
2024/01/26 07:00:09;;;;;;;5.10;3.37;;;;;;;-141.97;51.46;45972.19;4996298;28;20193;-86
2024/01/26 07:02:34;;;;;;;7.33;3.77;;;;;;;-141.97;51.69;46047.13;4997443;28;20296;-86
2024/01/26 07:04:59;;;;;;;13.17;4.90;;;;;;;-141.97;51.91;46083.63;5000409;28;20166;-86
2024/01/26 07:07:25;;;;;;;7.23;3.57;;;;;;;-141.97;51.60;46112.44;5001014;28;20222;-87
2024/01/26 07:09:50;;;;;;;5.93;2.93;;;;;;;-141.97;51.35;46039.44;5016698;28;20198;-86
2024/01/26 07:12:16;;;;;;;8.60;4.13;;;;;;;-141.97;51.35;46392.94;4999660;28;20166;-87
2024/01/26 07:14:41;;;;;;;6.50;4.00;;;;;;;-141.97;50.70;45964.50;5000567;28;20193;-86
2024/01/26 07:17:07;;;;;;;7.13;3.77;;;;;;;-141.97;50.64;46062.47;4988820;28;20192;-88
2024/01/26 07:19:32;;;;;;;15.47;7.67;;;;;;;-141.97;50.44;46346.84;4982842;28;20600;-87
2024/01/26 07:21:58;;;;;;;5.63;3.27;;;;;;;-141.97;50.75;45997.16;4988720;28;20177;-89
2024/01/26 07:24:23;;;;;;;9.43;4.03;;;;;;;-141.97;51.06;46093.22;4984220;28;20618;-87
2024/01/26 07:26:48;;;;;;;10.40;4.07;;;;;;;-141.97;50.56;46043.28;5019520;28;20162;-89
2024/01/26 07:29:14;;;;;;;9.50;3.70;;;;;;;-141.97;50.48;46077.84;5001174;28;20630;-84
2024/01/26 07:31:41;;;;;;;12.47;4.67;;;;;;;-141.97;50.39;46077.84;4999699;28;20249;-84
2024/01/26 07:34:06;;;;;;;10.17;4.93;;;;;;;-141.97;49.86;46104.75;4999867;28;20170;-85
2024/01/26 07:36:36;;;;;;;9.57;4.90;;;;;;;-141.97;50.22;46298.81;5015039;28;20594;-84
2024/01/26 07:39:02;;;;;;;9.23;4.70;;;;;;;-141.97;50.08;45977.94;4983417;28;20257;-84
2024/01/26 07:41:28;;;;;;;7.50;4.00;;;;;;;-141.97;49.45;46074.00;4998864;28;20609;-84
2024/01/26 07:43:53;;;;;;;9.83;4.73;;;;;;;-141.97;50.09;45943.38;5014903;28;20162;-83
2024/01/26 07:46:19;;;;;;;9.30;3.90;;;;;;;-141.97;50.14;46448.66;4999657;28;20162;-85
2024/01/26 07:48:44;;;;;;;9.20;4.90;;;;;;;-141.97;49.45;46210.41;5018289;28;20162;-85
2024/01/26 07:51:09;;;;;;;9.23;4.53;;;;;;;-141.97;49.21;45904.94;5017150;28;20201;-83
2024/01/26 07:53:35;;;;;;;8.13;4.83;;;;;;;-141.97;49.71;46099.00;4983709;28;20683;-85
2024/01/26 07:56:01;;;;;;;9.10;3.67;;;;;;;-141.97;49.39;45881.91;5015766;28;20162;-84
2024/01/26 07:58:26;;;;;;;6.17;3.13;;;;;;;-141.97;49.10;46414.09;4999405;28;20889;-86
2024/01/26 08:00:51;;;;;;;10.27;5.20;;;;;;;-141.97;49.02;46469.81;5000028;28;20154;-85
2024/01/26 08:03:17;;;;;;;5.80;3.60;;;;;;;-141.97;48.27;46012.53;5000874;28;20166;-83
2024/01/26 08:05:42;;;;;;;6.60;3.57;;;;;;;-141.97;49.10;45958.75;4982457;28;20185;-84
2024/01/26 08:08:08;;;;;;;7.63;3.80;;;;;;;-141.97;48.28;46031.75;4998983;28;20367;-85
2024/01/26 08:10:33;;;;;;;6.67;3.57;;;;;;;-141.97;47.93;45962.59;4999737;28;20204;-85
2024/01/26 08:12:59;;;;;;;11.27;4.33;;;;;;;-141.97;49.12;46068.25;5035024;28;20193;-83
2024/01/26 08:15:26;;;;;;;8.23;3.33;;;;;;;-141.97;48.29;45805.06;4983020;28;20243;-84
2024/01/26 08:17:51;;;;;;;8.07;4.03;;;;;;;-141.97;47.80;45931.84;5000295;28;20240;-84
2024/01/26 08:20:17;;;;;;;10.83;5.33;;;;;;;-141.97;47.81;46062.47;5015492;28;20568;-84
2024/01/26 08:22:43;;;;;;;8.37;3.90;;;;;;;-141.97;48.48;46056.72;5014922;28;20591;-84
2024/01/26 08:25:08;;;;;;;7.47;4.00;;;;;;;-141.97;48.25;46293.03;4999064;28;20158;-84
2024/01/26 08:27:34;;;;;;;10.53;3.73;;;;;;;-141.97;48.36;45987.56;4998984;28;20551;-83
2024/01/26 08:29:59;;;;;;;7.57;3.77;;;;;;;-141.97;47.96;46041.34;5015201;28;20602;-83
2024/01/26 08:32:24;;;;;;;7.60;3.20;;;;;;;-141.97;47.86;45920.31;5018291;28;20162;-83
2024/01/26 08:34:50;;;;;;;10.40;4.10;;;;;;;-141.97;47.54;45793.53;4998671;28;20174;-83
2024/01/26 08:37:15;;;;;;;8.03;3.77;;;;;;;-141.97;47.90;46043.28;5015284;28;20158;-84
2024/01/26 08:39:44;;;;;;;13.53;5.80;;;;;;;-141.97;46.96;45916.47;5015208;28;20162;-85
2024/01/26 08:42:10;;;;;;;7.67;3.60;;;;;;;-141.97;46.45;45904.94;4998410;28;20248;-84
2024/01/26 08:44:35;;;;;;;6.23;3.33;;;;;;;-141.97;46.88;45837.72;5014719;28;20197;-84
2024/01/26 08:47:01;;;;;;;7.23;3.20;;;;;;;-141.97;46.42;45866.53;5014423;28;20158;-85
2024/01/26 08:49:26;;;;;;;8.90;4.63;;;;;;;-141.97;46.41;46031.75;5014818;28;20177;-86
2024/01/26 08:51:52;;;;;;;11.00;4.20;;;;;;;-141.97;46.24;46035.59;4998290;28;20167;-88
2024/01/26 08:54:18;;;;;;;6.37;3.53;;;;;;;-141.97;46.02;45937.59;4997820;28;20265;-87
2024/01/26 08:56:44;;;;;;;8.60;3.77;;;;;;;-141.97;45.74;46033.66;4981622;28;20543;-87
2024/01/26 08:59:09;;;;;;;9.40;3.77;;;;;;;-141.97;45.87;46385.25;4997268;28;20182;-87
2024/01/26 09:01:36;;;;;;;6.73;3.50;;;;;;;-141.97;45.68;45762.78;5030819;28;20257;-87
2024/01/26 09:04:04;;;;;;;8.00;4.30;;;;;;;-141.97;46.59;46085.53;4997488;28;20161;-87
2024/01/26 09:06:30;;;;;;;11.23;5.53;;;;;;;-141.97;46.54;46024.06;4997199;28;20636;-87
2024/01/26 09:08:55;;;;;;;9.30;5.30;;;;;;;-141.97;46.50;46004.84;4997219;28;20559;-87
2024/01/26 09:11:21;;;;;;;12.17;4.10;;;;;;;-141.97;46.17;45793.53;5031469;28;20560;-87
2024/01/26 09:13:46;;;;;;;7.97;3.50;;;;;;;-141.97;45.89;45824.25;4982306;28;20196;-87
2024/01/26 09:16:12;;;;;;;7.83;3.77;;;;;;;-141.97;45.51;45993.31;5001338;28;20173;-89
2024/01/26 09:18:38;;;;;;;6.63;3.63;;;;;;;-141.97;44.54;46248.84;5017299;28;20162;-87
2024/01/26 09:21:04;;;;;;;6.07;3.93;;;;;;;-141.97;44.86;45835.78;5011468;28;20178;-88
2024/01/26 09:23:29;;;;;;;9.17;4.30;;;;;;;-141.97;44.92;46108.59;5016280;28;20246;-87
2024/01/26 09:25:58;;;;;;;24.87;11.40;;;;;;;-141.97;44.88;45812.72;5017350;28;20662;-88
2024/01/26 09:28:23;;;;;;;9.90;4.97;;;;;;;-141.97;45.02;45747.41;5019213;28;20231;-87
2024/01/26 09:30:49;;;;;;;77.43;38.53;;;;;;;-141.97;44.83;45952.97;5017254;28;20263;-86
2024/01/26 09:33:15;;;;;;;49.17;27.63;;;;;;;-141.97;44.92;45993.31;5032699;28;20165;-85
2024/01/26 09:35:40;;;;;;;20.43;10.07;;;;;;;-141.97;44.86;46008.69;5016649;28;20157;-84
2024/01/26 09:38:05;;;;;;;26.10;12.87;;;;;;;-141.97;44.29;46118.19;5052451;28;20162;-84
2024/01/26 09:40:31;;;;;;;14.30;8.03;;;;;;;-141.97;44.92;45816.56;5018883;28;20161;-84
2024/01/26 09:42:56;;;;;;;13.70;6.20;;;;;;;-141.97;44.80;45751.25;5021961;28;20357;-85
2024/01/26 09:45:23;;;;;;;16.37;7.53;;;;;;;-141.97;44.31;45772.41;5034258;28;20574;-84
2024/01/26 09:47:50;;;;;;;13.63;5.93;;;;;;;-141.97;42.83;46212.34;5018348;28;20244;-85
2024/01/26 09:50:16;;;;;;;10.23;6.83;;;;;;;-141.97;43.52;46018.28;5036454;28;20212;-85
2024/01/26 09:52:41;;;;;;;9.60;5.40;;;;;;;-141.97;43.73;46001.00;5019515;28;20232;-85
2024/01/26 09:55:07;;;;;;;16.10;8.20;;;;;;;-141.97;43.90;46419.84;5026120;28;20176;-85
2024/01/26 09:57:32;;;;;;;9.57;5.27;;;;;;;-141.97;43.55;46362.22;5037829;28;20229;-85
2024/01/26 09:59:58;;;;;;;10.33;5.27;;;;;;;-141.97;43.12;46310.31;5037909;28;20161;-85
2024/01/26 10:02:24;;;;;;;8.17;4.87;;;;;;;-141.97;43.81;46268.06;5020606;28;20161;-85
2024/01/26 10:04:50;;;;;;;9.40;4.63;;;;;;;-141.97;43.74;45768.56;5019562;28;20710;-84
2024/01/26 10:07:15;;;;;;;11.87;5.10;;;;;;;-141.97;43.64;45979.88;4985514;28;20234;-86
2024/01/26 10:09:41;;;;;;;10.83;5.20;;;;;;;-141.97;43.33;46014.44;5015026;28;20233;-85
2024/01/26 10:12:10;;;;;;;7.63;4.60;;;;;;;-141.97;42.83;46166.22;4999868;28;20173;-85
2024/01/26 10:14:35;;;;;;;11.70;5.73;;;;;;;-141.97;42.97;45782.00;5016011;28;20791;-84
2024/01/26 10:17:01;;;;;;;14.20;7.33;;;;;;;-141.97;42.55;45878.06;5009932;28;20190;-87
2024/01/26 10:19:26;;;;;;;10.77;6.37;;;;;;;-141.97;42.52;45977.94;5001958;28;20162;-87
2024/01/26 10:21:52;;;;;;;5.70;4.10;;;;;;;-141.97;42.10;46185.44;5011360;28;20201;-87
2024/01/26 10:24:23;;;;;;;6.17;3.90;;;;;;;-141.97;42.13;45845.41;5010902;28;20170;-87
2024/01/26 10:26:49;;;;;;;9.10;6.33;;;;;;;-141.97;42.67;45962.59;5015037;28;20332;-89
2024/01/26 10:29:14;;;;;;;14.50;6.43;;;;;;;-141.97;41.77;45885.72;5016741;28;20163;-86
2024/01/26 10:31:41;;;;;;;10.50;4.40;;;;;;;-141.97;41.17;45860.75;5011173;28;20662;-86
2024/01/26 10:34:09;;;;;;;15.00;6.93;;;;;;;-141.97;41.63;45912.63;5035077;28;20166;-86
2024/01/26 10:36:34;;;;;;;8.93;4.60;;;;;;;-141.97;42.14;46398.72;5051647;28;20181;-86
2024/01/26 10:39:01;;;;;;;6.73;3.57;;;;;;;-141.97;41.85;45937.59;5035736;28;20170;-85
2024/01/26 10:41:26;;;;;;;6.57;3.97;;;;;;;-141.97;41.06;45976.03;5017050;28;20233;-86
2024/01/26 10:43:55;;;;;;;9.77;5.07;;;;;;;-141.97;42.02;46364.13;5016924;28;20173;-87
2024/01/26 10:46:20;;;;;;;7.87;3.80;;;;;;;-141.97;42.08;45935.69;5032661;28;20158;-88
2024/01/26 10:48:46;;;;;;;9.07;4.63;;;;;;;-141.97;42.30;45983.72;5033034;28;20249;-88
2024/01/26 10:51:11;;;;;;;11.20;5.20;;;;;;;-141.97;41.64;45908.78;5016054;28;20704;-86
2024/01/26 10:53:37;;;;;;;6.57;3.97;;;;;;;-141.97;41.70;46204.66;5015936;28;20598;-86
2024/01/26 10:56:04;;;;;;;8.43;4.23;;;;;;;-141.97;41.30;45893.41;4999687;28;20192;-87
2024/01/26 10:58:29;;;;;;;7.17;4.13;;;;;;;-141.97;41.33;45835.78;5019486;28;20609;-88
2024/01/26 11:00:54;;;;;;;17.00;7.40;;;;;;;-141.97;41.48;46412.16;5018989;28;20165;-87
2024/01/26 11:03:20;;;;;;;17.67;8.60;;;;;;;-141.97;41.39;46012.53;5019080;28;20645;-87
2024/01/26 11:05:49;;;;;;;10.13;4.30;;;;;;;-141.97;41.46;45916.47;5018988;28;20162;-87
2024/01/26 11:08:22;;;;;;;11.70;5.00;;;;;;;-141.97;41.36;46473.66;5019023;28;20298;-87